createdAt,value
2022-10-13T00:00:43.485Z,101654.28
2022-10-13T00:03:10.639Z,101659.50
2022-10-13T00:05:42.255Z,101652.09
2022-10-13T00:08:09.306Z,101650.69
2022-10-13T00:10:38.091Z,101651.66
2022-10-13T00:13:05.671Z,101653.28
2022-10-13T00:15:32.405Z,101655.94
2022-10-13T00:17:58.948Z,101649.28
2022-10-13T00:20:25.470Z,101650.06
2022-10-13T00:22:51.954Z,101645.47
2022-10-13T00:25:18.411Z,101652.41
2022-10-13T00:27:44.846Z,101650.78
2022-10-13T00:30:11.684Z,101652.75
2022-10-13T00:32:38.230Z,101659.63
2022-10-13T00:35:05.141Z,101645.41
2022-10-13T00:37:31.621Z,101651.81
2022-10-13T00:39:58.075Z,101650.50
2022-10-13T00:42:26.378Z,101652.31
2022-10-13T00:45:19.760Z,101655.78
2022-10-13T00:47:51.682Z,101649.16
2022-10-13T00:50:19.944Z,101651.00
2022-10-13T00:52:47.781Z,101653.94
2022-10-13T00:55:18.101Z,101646.53
2022-10-13T00:57:48.351Z,101655.13
2022-10-13T01:00:15.143Z,101653.94
2022-10-13T01:02:41.776Z,101649.16
2022-10-13T01:05:08.890Z,101652.91
2022-10-13T01:07:35.884Z,101650.44
2022-10-13T01:10:04.001Z,101644.84
2022-10-13T01:12:46.533Z,101648.13
2022-10-13T01:15:30.092Z,101650.31
2022-10-13T01:18:05.779Z,101646.41
2022-10-13T01:20:47.452Z,101647.38
2022-10-13T01:23:51.573Z,101646.22
2022-10-13T01:26:52.511Z,101643.97
2022-10-13T01:29:53.213Z,101638.16
2022-10-13T01:32:31.783Z,101639.66
2022-10-13T01:35:17.259Z,101634.78
2022-10-13T01:37:50.999Z,101634.13
2022-10-13T01:40:38.454Z,101635.97
2022-10-13T01:43:08.384Z,101631.66
2022-10-13T01:45:40.746Z,101632.63
2022-10-13T01:48:08.833Z,101625.63
2022-10-13T01:50:38.150Z,101630.16
2022-10-13T01:53:06.103Z,101625.88
2022-10-13T01:55:32.579Z,101618.13
2022-10-13T01:57:59.164Z,101620.13
2022-10-13T02:00:26.267Z,101625.88
2022-10-13T02:03:23.828Z,101620.09
2022-10-13T02:06:15.712Z,101625.06
2022-10-13T02:09:18.572Z,101622.59
2022-10-13T02:11:52.024Z,101624.59
2022-10-13T02:14:26.498Z,101613.56
2022-10-13T02:16:55.457Z,101616.19
2022-10-13T02:19:22.950Z,101614.38
2022-10-13T02:21:51.480Z,101601.66
2022-10-13T02:24:18.199Z,101607.00
2022-10-13T02:26:45.483Z,101609.44
2022-10-13T02:29:14.410Z,101599.00
2022-10-13T02:31:41.865Z,101607.38
2022-10-13T02:34:08.747Z,101597.31
2022-10-13T02:36:37.793Z,101595.28
2022-10-13T02:39:05.286Z,101590.97
2022-10-13T02:41:31.798Z,101590.81
2022-10-13T02:43:58.250Z,101596.09
2022-10-13T02:46:24.866Z,101595.72
2022-10-13T02:48:51.410Z,101594.22
2022-10-13T02:51:17.955Z,101590.06
2022-10-13T02:53:44.547Z,101582.91
2022-10-13T02:56:11.004Z,101581.06
2022-10-13T02:58:37.490Z,101581.00
2022-10-13T03:01:08.894Z,101579.41
2022-10-13T03:03:35.992Z,101580.41
2022-10-13T03:06:02.787Z,101577.56
2022-10-13T03:08:29.681Z,101582.59
2022-10-13T03:10:56.141Z,101584.53
2022-10-13T03:13:22.697Z,101584.31
2022-10-13T03:15:49.333Z,101582.06
2022-10-13T03:18:16.343Z,101583.28
2022-10-13T03:20:43.050Z,101585.94
2022-10-13T03:23:09.503Z,101582.25
2022-10-13T03:25:37.414Z,101588.41
2022-10-13T03:28:03.917Z,101585.25
2022-10-13T03:30:30.415Z,101581.16
2022-10-13T03:32:56.842Z,101578.06
2022-10-13T03:35:23.358Z,101578.06
2022-10-13T03:37:49.813Z,101587.47
2022-10-13T03:40:16.401Z,101583.78
2022-10-13T03:42:42.931Z,101582.81
2022-10-13T03:45:09.979Z,101585.00
2022-10-13T03:47:36.877Z,101577.84
2022-10-13T03:50:04.771Z,101577.19
2022-10-13T03:52:31.314Z,101586.13
2022-10-13T03:54:57.847Z,101584.34
2022-10-13T03:57:24.422Z,101585.00
2022-10-13T03:59:50.909Z,101588.66
2022-10-13T04:02:17.579Z,101586.38
2022-10-13T04:04:44.379Z,101584.75
2022-10-13T04:07:10.831Z,101587.66
2022-10-13T04:09:37.654Z,101585.91
2022-10-13T04:12:04.471Z,101581.53
2022-10-13T04:14:30.943Z,101582.38
2022-10-13T04:16:57.487Z,101590.53
2022-10-13T04:19:23.982Z,101588.75
2022-10-13T04:21:50.461Z,101595.09
2022-10-13T04:24:18.266Z,101591.66
2022-10-13T04:26:45.041Z,101597.47
2022-10-13T04:29:12.111Z,101585.31
2022-10-13T04:31:40.588Z,101587.47
2022-10-13T04:34:07.852Z,101577.66
2022-10-13T04:36:34.337Z,101577.41
2022-10-13T04:39:00.839Z,101580.72
2022-10-13T04:41:27.339Z,101588.25
2022-10-13T04:43:54.355Z,101573.88
2022-10-13T04:46:26.463Z,101578.94
2022-10-13T04:48:53.301Z,101581.38
2022-10-13T04:51:22.506Z,101581.78
2022-10-13T04:53:53.757Z,101575.09
2022-10-13T04:56:20.286Z,101577.25
2022-10-13T04:58:46.829Z,101581.00
2022-10-13T05:01:21.531Z,101581.53
2022-10-13T05:03:56.448Z,101579.63
2022-10-13T05:06:31.735Z,101585.72
2022-10-13T05:08:58.937Z,101588.81
2022-10-13T05:11:26.828Z,101592.13
2022-10-13T05:13:53.947Z,101592.88
2022-10-13T05:16:22.246Z,101585.63
2022-10-13T05:18:49.860Z,101591.59
2022-10-13T05:21:24.902Z,101593.44
2022-10-13T05:23:54.344Z,101595.31
2022-10-13T05:26:22.674Z,101587.59
2022-10-13T05:28:49.419Z,101582.00
2022-10-13T05:31:18.917Z,101588.81
2022-10-13T05:33:46.844Z,101590.72
2022-10-13T05:36:18.693Z,101596.06
2022-10-13T05:38:45.402Z,101594.41
2022-10-13T05:41:13.967Z,101589.50
2022-10-13T05:43:42.075Z,101588.69
2022-10-13T05:46:08.649Z,101585.22
2022-10-13T05:48:35.663Z,101594.47
2022-10-13T05:51:04.922Z,101591.34
2022-10-13T05:53:35.732Z,101585.97
2022-10-13T05:56:08.731Z,101580.91
2022-10-13T05:58:40.724Z,101573.56
2022-10-13T06:01:08.485Z,101582.56
2022-10-13T06:03:35.829Z,101573.81
2022-10-13T06:06:02.503Z,101579.06
2022-10-13T06:08:29.796Z,101573.28
2022-10-13T06:10:56.615Z,101575.06
2022-10-13T06:13:23.099Z,101574.84
2022-10-13T06:15:49.591Z,101570.88
2022-10-13T06:18:16.086Z,101571.72
2022-10-13T06:20:43.632Z,101553.56
2022-10-13T06:23:10.170Z,101555.44
2022-10-13T06:25:36.864Z,101560.63
2022-10-13T06:28:03.525Z,101563.09
2022-10-13T06:30:29.995Z,101554.53
2022-10-13T06:32:56.555Z,101552.19
2022-10-13T06:35:23.657Z,101556.28
2022-10-13T06:37:53.098Z,101554.25
2022-10-13T06:40:19.689Z,101549.78
2022-10-13T06:42:50.035Z,101542.91
2022-10-13T06:45:16.859Z,101551.97
2022-10-13T06:47:43.426Z,101552.88
2022-10-13T06:50:10.007Z,101556.47
2022-10-13T06:52:36.480Z,101556.16
2022-10-13T06:55:03.160Z,101561.34
2022-10-13T06:57:29.703Z,101562.09
2022-10-13T06:59:56.247Z,101563.38
2022-10-13T07:02:23.068Z,101573.22
2022-10-13T07:04:49.895Z,101573.88
2022-10-13T07:07:16.414Z,101565.25
2022-10-13T07:09:42.896Z,101569.69
2022-10-13T07:12:09.484Z,101570.78
2022-10-13T07:14:38.181Z,101571.75
2022-10-13T07:17:07.518Z,101569.22
2022-10-13T07:19:34.174Z,101575.63
2022-10-13T07:22:00.643Z,101568.44
2022-10-13T07:24:27.573Z,101572.06
2022-10-13T07:26:54.046Z,101569.22
2022-10-13T07:29:20.578Z,101575.69
2022-10-13T07:31:47.431Z,101579.94
2022-10-13T07:34:15.512Z,101580.50
2022-10-13T07:36:42.428Z,101578.78
2022-10-13T07:39:09.811Z,101579.28
2022-10-13T07:41:36.951Z,101576.53
2022-10-13T07:44:03.596Z,101580.28
2022-10-13T07:46:30.095Z,101580.53
2022-10-13T07:48:56.713Z,101577.38
2022-10-13T07:51:23.281Z,101580.44
2022-10-13T07:53:50.684Z,101584.97
2022-10-13T07:56:17.345Z,101577.81
2022-10-13T07:58:46.435Z,101577.88
2022-10-13T08:01:14.149Z,101581.81
2022-10-13T08:03:45.602Z,101572.25
2022-10-13T08:06:16.923Z,101570.47
2022-10-13T08:08:43.494Z,101575.06
2022-10-13T08:11:16.479Z,101579.56
2022-10-13T08:13:48.071Z,101580.19
2022-10-13T08:16:14.599Z,101584.63
2022-10-13T08:18:41.099Z,101580.44
2022-10-13T08:21:45.847Z,101583.22
2022-10-13T08:23:59.356Z,101583.91
2022-10-13T08:26:28.547Z,101583.75
2022-10-13T08:29:16.658Z,101586.69
2022-10-13T08:31:42.542Z,101590.09
2022-10-13T08:34:10.365Z,101581.03
2022-10-13T08:36:37.787Z,101588.09
2022-10-13T08:39:05.118Z,101584.75
2022-10-13T08:41:36.452Z,101585.16
2022-10-13T08:47:19.286Z,101588.84
2022-10-13T08:49:46.322Z,101588.03
2022-10-13T08:52:23.027Z,101598.00
2022-10-13T08:54:50.176Z,101595.97
2022-10-13T08:57:17.549Z,101595.34
2022-10-13T08:59:44.385Z,101598.06
2022-10-13T09:02:29.083Z,101595.63
2022-10-13T09:04:59.928Z,101600.06
2022-10-13T09:07:31.541Z,101600.81
2022-10-13T09:09:58.225Z,101594.38
2022-10-13T09:12:25.826Z,101592.31
2022-10-13T09:15:10.841Z,101593.38
2022-10-13T09:17:40.136Z,101587.13
2022-10-13T09:20:27.579Z,101594.28
2022-10-13T09:23:19.418Z,101590.63
2022-10-13T09:25:51.569Z,101598.66
2022-10-13T09:28:30.022Z,101583.28
2022-10-13T09:31:24.306Z,101590.66
2022-10-13T09:34:22.531Z,101586.88
2022-10-13T09:36:55.891Z,101578.19
2022-10-13T09:39:22.751Z,101575.34
2022-10-13T09:41:49.215Z,101565.00
2022-10-13T09:44:28.846Z,101573.75
2022-10-13T09:47:01.347Z,101569.22
2022-10-13T09:49:39.638Z,101565.06
2022-10-13T09:52:14.414Z,101564.94
2022-10-13T09:54:41.017Z,101563.53
2022-10-13T09:57:26.558Z,101566.69
2022-10-13T10:00:04.368Z,101555.59
2022-10-13T10:02:49.523Z,101558.50
2022-10-13T10:05:27.539Z,101557.38
2022-10-13T10:07:58.870Z,101553.19
2022-10-13T10:10:33.943Z,101557.31
2022-10-13T10:13:02.131Z,101549.13
2022-10-13T10:15:38.798Z,101547.00
2022-10-13T10:18:16.758Z,101547.94
2022-10-13T10:21:07.896Z,101540.34
2022-10-13T10:23:42.546Z,101541.41
2022-10-13T10:26:18.197Z,101542.19
2022-10-13T10:28:55.514Z,101543.72
2022-10-13T10:31:55.669Z,101536.03
2022-10-13T10:34:35.073Z,101534.78
2022-10-13T10:37:21.427Z,101532.75
2022-10-13T10:40:02.219Z,101533.50
2022-10-13T10:42:47.287Z,101524.69
2022-10-13T10:45:20.445Z,101534.22
2022-10-13T10:47:51.528Z,101524.03
2022-10-13T10:50:19.028Z,101512.63
2022-10-13T10:52:55.339Z,101507.72
2022-10-13T10:55:41.095Z,101502.06
2022-10-13T10:58:22.481Z,101506.69
2022-10-13T11:01:12.243Z,101487.72
2022-10-13T11:03:46.721Z,101480.72
2022-10-13T11:06:13.133Z,101476.22
2022-10-13T11:08:42.388Z,101478.91
2022-10-13T11:11:25.065Z,101471.09
2022-10-13T11:13:56.401Z,101476.97
2022-10-13T11:16:33.351Z,101465.59
2022-10-13T11:19:07.866Z,101456.50
2022-10-13T11:21:52.805Z,101446.16
2022-10-13T11:24:39.283Z,101437.66
2022-10-13T11:27:11.692Z,101442.53
2022-10-13T11:29:44.485Z,101440.25
2022-10-13T11:32:26.379Z,101440.53
2022-10-13T11:35:17.583Z,101438.44
2022-10-13T11:38:06.798Z,101429.09
2022-10-13T11:40:37.955Z,101430.38
2022-10-13T11:43:13.121Z,101421.63
2022-10-13T11:46:01.673Z,101415.47
2022-10-13T11:48:34.051Z,101416.88
2022-10-13T11:51:03.771Z,101422.91
2022-10-13T11:53:44.510Z,101418.03
2022-10-13T11:56:46.122Z,101417.19
2022-10-13T11:59:33.698Z,101412.00
2022-10-13T12:02:12.269Z,101410.34
2022-10-13T12:04:46.342Z,101412.66
2022-10-13T12:07:15.922Z,101401.59
2022-10-13T12:09:57.426Z,101403.81
2022-10-13T12:12:25.305Z,101405.22
2022-10-13T12:14:54.997Z,101402.78
2022-10-13T12:17:31.355Z,101392.75
2022-10-13T12:20:03.610Z,101385.63
2022-10-13T12:22:30.595Z,101373.16
2022-10-13T12:25:06.320Z,101371.41
2022-10-13T12:27:44.686Z,101359.47
2022-10-13T12:30:30.942Z,101364.38
2022-10-13T12:33:00.012Z,101359.00
2022-10-13T12:35:33.760Z,101355.28
2022-10-13T12:38:13.099Z,101352.94
2022-10-13T12:40:40.011Z,101357.16
2022-10-13T12:43:06.719Z,101364.59
2022-10-13T12:45:35.240Z,101366.47
2022-10-13T12:48:01.809Z,101371.50
2022-10-13T12:50:28.255Z,101370.56
2022-10-13T12:53:15.452Z,101362.28
2022-10-13T12:55:59.056Z,101362.28
2022-10-13T12:58:31.591Z,101357.16
2022-10-13T13:01:03.957Z,101363.31
2022-10-13T13:03:30.700Z,101362.72
2022-10-13T13:06:14.405Z,101362.03
2022-10-13T13:08:43.228Z,101361.25
2022-10-13T13:11:35.857Z,101363.56
2022-10-13T13:14:36.759Z,101357.25
2022-10-13T13:17:38.559Z,101358.53
2022-10-13T13:20:29.214Z,101357.13
2022-10-13T13:22:56.010Z,101351.66
2022-10-13T13:25:23.355Z,101353.78
2022-10-13T13:27:50.872Z,101356.81
2022-10-13T13:30:20.057Z,101356.09
2022-10-13T13:32:46.737Z,101343.97
2022-10-13T13:35:13.428Z,101349.66
2022-10-13T13:37:44.405Z,101350.25
2022-10-13T13:40:16.479Z,101345.47
2022-10-13T13:42:42.963Z,101338.72
2022-10-13T13:45:13.458Z,101343.50
2022-10-13T13:47:40.004Z,101338.47
2022-10-13T13:50:17.122Z,101333.47
2022-10-13T13:52:43.698Z,101334.50
2022-10-13T13:55:10.292Z,101336.25
2022-10-13T13:57:36.871Z,101328.81
2022-10-13T14:00:04.871Z,101325.28
2022-10-13T14:02:31.432Z,101322.38
2022-10-13T14:04:58.316Z,101317.47
2022-10-13T14:07:24.820Z,101328.44
2022-10-13T14:09:51.462Z,101319.47
2022-10-13T14:12:18.291Z,101315.84
2022-10-13T14:14:45.105Z,101312.34
2022-10-13T14:17:11.564Z,101308.16
2022-10-13T14:19:38.096Z,101312.78
2022-10-13T14:22:09.180Z,101318.16
2022-10-13T14:24:36.066Z,101314.19
2022-10-13T14:27:02.591Z,101315.72
2022-10-13T14:29:29.546Z,101310.59
2022-10-13T14:31:56.237Z,101316.78
2022-10-13T14:34:22.886Z,101304.06
2022-10-13T14:36:49.348Z,101317.69
2022-10-13T14:39:15.915Z,101301.25
2022-10-13T14:41:42.422Z,101303.84
2022-10-13T14:44:11.858Z,101299.50
2022-10-13T14:46:38.440Z,101301.50
2022-10-13T14:49:04.992Z,101294.25
2022-10-13T14:51:32.430Z,101300.69
2022-10-13T14:54:01.639Z,101297.84
2022-10-13T14:56:32.453Z,101288.28
2022-10-13T14:59:04.327Z,101296.09
2022-10-13T15:01:31.292Z,101285.25
2022-10-13T15:03:57.811Z,101287.78
2022-10-13T15:06:26.235Z,101286.84
2022-10-13T15:08:53.353Z,101275.50
2022-10-13T15:11:21.682Z,101277.84
2022-10-13T15:13:48.198Z,101270.59
2022-10-13T15:16:23.548Z,101266.25
2022-10-13T15:18:50.784Z,101274.88
2022-10-13T15:21:18.090Z,101278.22
2022-10-13T15:23:45.275Z,101277.50
2022-10-13T15:26:13.826Z,101281.66
2022-10-13T15:28:42.494Z,101278.03
2022-10-13T15:31:09.008Z,101284.31
2022-10-13T15:33:35.527Z,101279.41
2022-10-13T15:36:02.307Z,101276.97
2022-10-13T15:38:28.980Z,101273.72
2022-10-13T15:41:03.253Z,101267.16
2022-10-13T15:43:29.890Z,101263.56
2022-10-13T15:46:00.376Z,101263.84
2022-10-13T15:48:27.671Z,101258.84
2022-10-13T15:50:54.160Z,101264.34
2022-10-13T15:53:20.739Z,101262.13
2022-10-13T15:55:48.154Z,101264.66
2022-10-13T15:58:15.579Z,101261.09
2022-10-13T16:00:42.937Z,101261.75
2022-10-13T16:03:18.030Z,101264.22
2022-10-13T16:05:46.038Z,101260.50
2022-10-13T16:08:14.047Z,101262.69
2022-10-13T16:10:42.074Z,101266.63
2022-10-13T16:13:12.407Z,101261.16
2022-10-13T16:15:38.926Z,101265.31
2022-10-13T16:18:05.706Z,101249.00
2022-10-13T16:20:35.053Z,101256.44
2022-10-13T16:23:01.881Z,101248.06
2022-10-13T16:25:29.356Z,101254.03
2022-10-13T16:27:56.174Z,101248.53
2022-10-13T16:30:22.712Z,101258.28
2022-10-13T16:32:49.419Z,101257.91
2022-10-13T16:35:16.133Z,101254.09
2022-10-13T16:37:42.613Z,101252.00
2022-10-13T16:40:09.542Z,101247.63
2022-10-13T16:42:36.035Z,101249.56
2022-10-13T16:45:02.510Z,101253.44
2022-10-13T16:47:29.465Z,101251.66
2022-10-13T16:49:55.931Z,101253.22
2022-10-13T16:52:22.519Z,101245.72
2022-10-13T16:54:48.992Z,101250.25
2022-10-13T16:57:15.514Z,101254.59
2022-10-13T16:59:42.014Z,101252.94
2022-10-13T17:02:14.437Z,101253.53
2022-10-13T17:04:41.433Z,101251.78
2022-10-13T17:07:07.982Z,101249.47
2022-10-13T17:09:34.441Z,101254.28
2022-10-13T17:12:01.263Z,101260.25
2022-10-13T17:14:27.778Z,101264.63
2022-10-13T17:16:57.558Z,101261.97
2022-10-13T17:19:24.399Z,101263.00
2022-10-13T17:21:50.866Z,101269.47
2022-10-13T17:24:17.420Z,101268.78
2022-10-13T17:26:43.841Z,101270.81
2022-10-13T17:29:10.656Z,101272.97
2022-10-13T17:31:37.148Z,101271.53
2022-10-13T17:34:03.587Z,101270.44
2022-10-13T17:36:32.249Z,101269.09
2022-10-13T17:39:06.856Z,101265.50
2022-10-13T17:41:33.770Z,101261.72
2022-10-13T17:44:00.287Z,101269.38
2022-10-13T17:46:38.349Z,101265.81
2022-10-13T17:49:07.280Z,101258.22
2022-10-13T17:51:34.332Z,101261.78
2022-10-13T17:54:01.303Z,101253.63
2022-10-13T17:56:28.977Z,101257.03
2022-10-13T17:58:55.822Z,101256.94
2022-10-13T18:01:27.867Z,101263.41
2022-10-13T18:03:59.825Z,101264.69
2022-10-13T18:06:31.461Z,101270.88
2022-10-13T18:09:04.735Z,101273.19
2022-10-13T18:11:31.399Z,101270.72
2022-10-13T18:13:58.771Z,101270.34
2022-10-13T18:16:25.292Z,101271.81
2022-10-13T18:18:53.754Z,101274.53
2022-10-13T18:21:23.197Z,101271.84
2022-10-13T18:23:49.946Z,101279.72
2022-10-13T18:26:19.984Z,101274.56
2022-10-13T18:28:48.488Z,101266.56
2022-10-13T18:31:18.695Z,101269.84
2022-10-13T18:33:45.601Z,101277.72
2022-10-13T18:36:15.519Z,101273.59
2022-10-13T18:38:42.455Z,101271.56
2022-10-13T18:41:09.026Z,101278.22
2022-10-13T18:43:35.488Z,101269.97
2022-10-13T18:46:02.915Z,101265.81
2022-10-13T18:48:29.531Z,101260.59
2022-10-13T18:50:56.213Z,101254.31
2022-10-13T18:53:22.947Z,101259.72
2022-10-13T18:55:49.511Z,101256.22
2022-10-13T18:58:16.075Z,101262.94
2022-10-13T19:00:42.658Z,101264.03
2022-10-13T19:03:09.549Z,101256.28
2022-10-13T19:05:39.566Z,101275.94
2022-10-13T19:08:09.388Z,101272.94
2022-10-13T19:10:36.424Z,101272.66
2022-10-13T19:13:03.203Z,101276.28
2022-10-13T19:15:29.659Z,101277.72
2022-10-13T19:17:56.134Z,101282.91
2022-10-13T19:20:22.871Z,101282.97
2022-10-13T19:22:49.326Z,101280.94
2022-10-13T19:25:16.398Z,101282.53
2022-10-13T19:27:43.048Z,101282.75
2022-10-13T19:30:10.363Z,101281.31
2022-10-13T19:32:39.578Z,101268.63
2022-10-13T19:35:06.779Z,101268.66
2022-10-13T19:37:33.417Z,101281.53
2022-10-13T19:39:59.968Z,101281.81
2022-10-13T19:42:27.069Z,101274.44
2022-10-13T19:44:54.162Z,101265.38
2022-10-13T19:47:21.451Z,101271.50
2022-10-13T19:49:48.261Z,101265.34
2022-10-13T19:52:15.312Z,101269.78
2022-10-13T19:54:42.247Z,101281.50
2022-10-13T19:57:09.220Z,101269.91
2022-10-13T19:59:36.879Z,101275.72
2022-10-13T20:02:04.452Z,101265.72
2022-10-13T20:04:31.270Z,101269.06
2022-10-13T20:06:57.717Z,101277.56
2022-10-13T20:09:24.211Z,101274.44
2022-10-13T20:11:51.942Z,101279.41
2022-10-13T20:14:18.966Z,101282.44
2022-10-13T20:16:45.894Z,101293.47
2022-10-13T20:19:14.703Z,101281.59
2022-10-13T20:21:41.278Z,101285.72
2022-10-13T20:24:07.864Z,101290.44
2022-10-13T20:26:34.535Z,101297.50
2022-10-13T20:29:01.207Z,101295.53
2022-10-13T20:31:27.988Z,101294.75
2022-10-13T20:33:56.226Z,101288.97
2022-10-13T20:36:24.100Z,101293.88
2022-10-13T20:38:51.070Z,101301.09
2022-10-13T20:41:21.679Z,101298.66
2022-10-13T20:43:49.192Z,101296.03
2022-10-13T20:46:17.478Z,101293.06
2022-10-13T20:49:09.887Z,101294.28
2022-10-13T20:51:31.028Z,101286.69
2022-10-13T20:53:57.730Z,101283.44
2022-10-13T20:56:26.289Z,101283.22
2022-10-13T20:58:53.217Z,101281.34
2022-10-13T21:01:21.680Z,101285.72
2022-10-13T21:03:55.398Z,101287.75
2022-10-13T21:06:23.856Z,101284.09
2022-10-13T21:08:50.827Z,101283.69
2022-10-13T21:11:20.116Z,101283.03
2022-10-13T21:13:47.520Z,101292.53
2022-10-13T21:16:19.832Z,101280.19
2022-10-13T21:18:51.422Z,101291.06
2022-10-13T21:21:22.286Z,101292.50
2022-10-13T21:23:53.573Z,101289.44
2022-10-13T21:26:22.412Z,101290.09
2022-10-13T21:28:50.238Z,101285.66
2022-10-13T21:31:18.384Z,101287.66
2022-10-13T21:33:45.892Z,101281.16
2022-10-13T21:36:16.380Z,101271.78
2022-10-13T21:38:44.281Z,101278.72
2022-10-13T21:41:12.749Z,101272.59
2022-10-13T21:43:39.401Z,101276.72
2022-10-13T21:46:16.506Z,101274.72
2022-10-13T21:48:44.343Z,101276.78
2022-10-13T21:51:22.526Z,101268.19
2022-10-13T21:54:00.633Z,101277.00
2022-10-13T21:56:28.110Z,101275.38
2022-10-13T21:58:56.037Z,101267.16
2022-10-13T22:01:23.867Z,101272.50
2022-10-13T22:03:55.145Z,101262.66
2022-10-13T22:06:21.997Z,101266.94
2022-10-13T22:08:50.945Z,101278.41
2022-10-13T22:11:18.434Z,101280.91
2022-10-13T22:13:45.320Z,101270.84
2022-10-13T22:16:20.754Z,101278.25
2022-10-13T22:18:47.775Z,101281.94
2022-10-13T22:21:17.399Z,101274.75
2022-10-13T22:23:45.202Z,101272.50
2022-10-13T22:26:13.612Z,101272.28
2022-10-13T22:28:40.482Z,101274.75
2022-10-13T22:31:08.786Z,101275.97
2022-10-13T22:33:37.448Z,101274.97
2022-10-13T22:36:24.640Z,101274.16
2022-10-13T22:38:52.982Z,101268.38
2022-10-13T22:41:20.029Z,101273.53
2022-10-13T22:43:54.306Z,101266.78
2022-10-13T22:46:23.655Z,101273.13
2022-10-13T22:48:50.746Z,101266.16
2022-10-13T22:51:20.210Z,101260.63
2022-10-13T22:53:47.762Z,101267.34
2022-10-13T22:56:17.395Z,101267.19
2022-10-13T22:58:44.227Z,101259.59
2022-10-13T23:01:13.947Z,101253.88
2022-10-13T23:03:40.865Z,101253.22
2022-10-13T23:06:12.300Z,101256.09
2022-10-13T23:08:39.101Z,101257.13
2022-10-13T23:11:05.685Z,101254.25
2022-10-13T23:13:32.438Z,101255.06
2022-10-13T23:16:03.592Z,101255.50
2022-10-13T23:18:30.343Z,101255.91
2022-10-13T23:20:57.191Z,101247.91
2022-10-13T23:23:23.847Z,101251.19
2022-10-13T23:25:50.410Z,101251.41
2022-10-13T23:28:18.144Z,101258.38
2022-10-13T23:30:44.600Z,101248.75
2022-10-13T23:33:11.064Z,101249.78
2022-10-13T23:35:37.546Z,101240.53
2022-10-13T23:38:04.094Z,101242.81
2022-10-13T23:40:30.621Z,101234.63
2022-10-13T23:42:57.100Z,101233.00
2022-10-13T23:45:23.536Z,101237.28
2022-10-13T23:47:49.977Z,101230.91
2022-10-13T23:50:16.518Z,101227.03
2022-10-13T23:52:43.033Z,101229.09
2022-10-13T23:55:09.578Z,101229.28
2022-10-13T23:57:36.104Z,101227.84
